Tiempo atmosférico en la estación meteorológica de Azuaga, Badajoz (550 m.)



Fecha
DESCASC
Temp. máxima en grados centígrados (hora)
DESCASC
Temp. mínima en grados centígrados (hora)
DESCASC
Temp. media en grados centígrados
DESCASC
Racha de viento máxima en m/sg (hora)
DESCASC
Velocidad máxima media en intervalos de 10 minutos(hora)
DESCASC
Precipitaciones diarias en mm
DESCASC
Precipitaciones de 00:00 a 06:00 en mm
DESCASC
Precipitaciones de 06:00 a 12:00 en mm
DESCASC
Precipitaciones de 12:00 a 18:00 en mm
DESCASC
Precipitaciones de 18:00 a 24:00 en mm
DESCASC
16-04-2019 23.3 (17:20) 6.6 (07:30) 14.9 8.33 (15:40) 4.72 (19:30) 0 0 0 0 0
15-04-2019 23.4 (15:00) 11.1 (23:59) 17.3 15.28 (17:30) 10.83 (17:20) 0 0 0 0 0
14-04-2019 23.4 (15:50) 10 (00:00) 16.7 6.39 (15:40) 3.06 (06:20) 0 0 0 0 0
13-04-2019 22.2 (17:30) 7.2 (00:00) 14.7 8.33 (16:20) 5 (18:10) 0 0 0 0 0
12-04-2019 19.9 (18:00) 5.2 (00:00) 12.5 7.22 (17:40) 3.61 (16:10) 0 0 0 0 0
11-04-2019 17.6 (16:50) 3.7 (00:00) 10.7 7.22 (01:00) 4.72 (00:40) 0 0 0 0 0
10-04-2019 14.8 (18:10) 6.6 (00:00) 10.7 11.67 (17:10) 7.78 (17:20) 0 0 0 0 0
09-04-2019 14.5 (16:20) 4.9 (00:00) 9.7 15.28 (13:50) 10.56 (13:50) 2.2 0 0.4 0.4 1.4
08-04-2019 16 (16:50) 6.7 (00:00) 11.3 12.22 (17:30) 8.06 (16:10) 5.6 0.4 5 0.2 0
07-04-2019 11.7 (18:00) 5.8 (00:00) 8.8 10.83 (02:30) 7.78 (02:40) 3.2 1.4 0.6 0.2 1
06-04-2019 12.5 (16:30) 4.2 (00:00) 8.3 19.72 (18:00) 11.94 (16:40) 1.8 0 0.2 0.6 1
05-04-2019 11.4 (18:30) 4.8 (00:00) 8.1 18.33 (16:40) 9.72 (19:50) 5.2 0.6 4.4 0.2 0
04-04-2019 16 (16:40) 1.9 (00:00) 8.9 9.72 (17:20) 6.39 (06:20) 0 0 0 0 0
03-04-2019 18.2 (15:30) 6.6 (00:00) 12.4 13.06 (16:30) 8.33 (16:20) 0 0 0 0 0
02-04-2019 19 (17:50) 6.4 (00:00) 12.7 8.61 (17:50) 4.72 (18:20) 0 0 0 0 0
01-04-2019 17.6 (16:30) 9.5 (00:00) 13.6 7.78 (19:00) 5.28 (19:00) 2.6 0 0 2.2 0.4
31-03-2019 19.7 (16:00) 7.5 (00:00) 13.6 11.11 (17:10) 7.22 (17:10) 5.4 0.6 0 4.6 0.2
30-03-2019 21.2 (16:40) 6.6 (00:00) 13.9 7.22 (10:10) 4.44 (10:10) 0 0 0 0 0
29-03-2019 19.3 (17:10) 4.7 (00:00) 12 9.72 (11:20) 5.56 (11:30) 0 0 0 0 0
28-03-2019 18.5 (16:40) 4.3 (00:00) 11.4 8.89 (15:30) 5 (12:00) 0 0 0 0 0
27-03-2019 20 (15:50) 4.4 (00:00) 12.2 12.5 (12:40) 7.22 (13:20) 0 0 0 0 0
26-03-2019 23.3 (15:20) 8.6 (00:00) 15.9 9.72 (13:10) 5.56 (14:00) 0 0 0 0 0
25-03-2019 22 (17:10) 6.4 (00:00) 14.2 11.39 (16:30) 6.11 (16:20) 0 0 0 0 0
24-03-2019 20.2 (15:30) 6.1 (00:00) 13.2 9.72 (14:50) 4.72 (14:20) 0 0 0 0 0
23-03-2019 19.5 (15:50) 5.4 (00:00) 12.5 13.33 (11:10) 7.5 (12:50) 0 0 0 0 0
22-03-2019 18.4 (16:50) 4.2 (00:00) 11.3 9.72 (13:50) 5.28 (13:40) 0 0 0 0 0
21-03-2019 16.4 (16:20) 4.5 (00:00) 10.4 10.56 (14:50) 5.83 (13:10) 0 0 0 0 0
20-03-2019 16.3 (17:20) 3.9 (00:00) 10.1 9.17 (13:20) 4.72 (09:20) 0 0 0 0 0
19-03-2019 16.6 (16:50) 5.6 (00:00) 11.1 10.56 (14:10) 5.83 (15:30) 0 0 0 0 0

Gráficas

Temp. máximas Temp. mínimas Temp. medias Precipitaciones Rachas de viento máximas Velocidades máximas media en intervalos de 10 minutos

Datos horarios

Fecha y hora oficial Temperatura (ºC) Velocidad del viento (km/h) Dirección del viento Racha (km/h) Dirección de racha Precipitación (mm) Presión (hPa) Tendencia (hPa) Humedad (%)
2019-04-17 23:00:00 11 10 Sur 19 Sur 0 -- -- 79
2019-04-17 22:00:00 11.8 9 Sur 18 Sur 0 -- -- 75
2019-04-17 21:00:00 12.4 10 Sudoeste 31 Sudoeste 0 -- -- 70
2019-04-17 20:00:00 13.8 16 Sudoeste 38 Sudoeste 0 -- -- 70
2019-04-17 19:00:00 16.1 19 Sudoeste 46 Sur 0 -- -- 65
2019-04-17 18:00:00 17.4 23 Sur 43 Sur 0 -- -- 59
2019-04-17 17:00:00 18.2 19 Sur 44 Sudoeste 0 -- -- 53
2019-04-17 16:00:00 19.1 23 Sudoeste 45 Sudoeste 0 -- -- 48
2019-04-17 15:00:00 20.2 23 Sur 40 Sudoeste 0 -- -- 45
2019-04-17 14:00:00 19.8 19 Sur 35 Sur 0 -- -- 42
2019-04-17 13:00:00 18.5 20 Sur 35 Sur 0 -- -- 43
2019-04-17 12:00:00 17.9 15 Sur 37 Sur 0 -- -- 45
2019-04-17 11:00:00 16.1 20 Sur 38 Sur 0 -- -- 48
2019-04-17 10:00:00 14.7 19 Sudeste 31 Sur 0 -- -- 52
2019-04-17 09:00:00 12.4 11 Sudeste 27 Sudeste 0 -- -- 62
2019-04-17 08:00:00 11.6 14 Sudeste 28 Sudeste 0 -- -- 65
2019-04-17 07:00:00 11.4 14 Sudeste 30 Sudeste 0 -- -- 66
2019-04-17 06:00:00 11.1 13 Sudeste 23 Sudeste 0 -- -- 69
2019-04-17 05:00:00 10.7 9 Sudeste 18 Sudeste 0 -- -- 67
2019-04-17 04:00:00 12 12 Sudeste 23 Sudeste 0 -- -- 58
2019-04-17 03:00:00 12.9 13 Sudeste 25 Sudeste 0 -- -- 58
2019-04-17 02:00:00 14.2 14 Sudeste 24 Sudeste 0 -- -- 59
2019-04-17 01:00:00 15 7 Sudeste 12 Sur 0 -- -- 53
2019-04-17 00:00:00 15.6 7 Sur 11 Sur 0 -- -- 50
2019-04-16 23:00:00 16.5 8 Sur 15 Sudeste 0 -- -- 49
2019-04-16 22:00:00 17.6 6 Sudeste 17 Sur 0 -- -- 46
2019-04-16 21:00:00 18.9 11 Sur 28 Sudeste 0 -- -- 41
2019-04-16 20:00:00 20.9 15 Sur 29 Sur 0 -- -- 32
2019-04-16 19:00:00 22.4 16 Sur 27 Sur 0 -- -- 25
2019-04-16 18:00:00 22.7 17 Sudeste 29 Sudeste 0 -- -- 26
2019-04-16 17:00:00 22.9 13 Sudeste 25 Sudeste 0 -- -- 27
2019-04-16 16:00:00 22.4 13 Sur 30 Este 0 -- -- 29
2019-04-16 15:00:00 20.8 10 Este 28 Este 0 -- -- 33
2019-04-16 14:00:00 19.7 13 Sudeste 26 Sudeste 0 -- -- 39
2019-04-16 13:00:00 18.4 14 Sudeste 24 Sudeste 0 -- -- 44
2019-04-16 12:00:00 16.6 13 Este 24 Este 0 -- -- 54
2019-04-16 11:00:00 15.1 8 Sudeste 14 Sudeste 0 -- -- 62
2019-04-16 10:00:00 12.7 5 Este 10 Este 0 -- -- 75
2019-04-16 09:00:00 8.3 0 Calma 6 Este 0 -- -- 87
2019-04-16 08:00:00 7.3 0 Calma 5 Oeste 0 -- -- 95
2019-04-16 07:00:00 7.2 4 Oeste 11 Sudoeste 0 -- -- 93
2019-04-16 06:00:00 7.5 4 Sudoeste 7 Noroeste 0 -- -- 92
2019-04-16 05:00:00 7.1 5 Noroeste 12 Oeste 0 -- -- 90
2019-04-16 04:00:00 8.1 7 Noroeste 16 Oeste 0 -- -- 87
2019-04-16 03:00:00 8.9 9 Oeste 19 Oeste 0 -- -- 83
2019-04-16 02:00:00 9.4 9 Oeste 15 Oeste 0 -- -- 80
2019-04-16 01:00:00 10.1 11 Oeste 16 Oeste 0 -- -- 78
2019-04-16 00:00:00 11.1 12 Oeste 17 Oeste 0 -- -- 75
2019-04-15 23:00:00 12.5 6 Oeste 18 Oeste 0 -- -- 69
2019-04-15 22:00:00 13.7 15 Oeste 22 Oeste 0 -- -- 62
2019-04-15 21:00:00 15.8 16 Oeste 37 Oeste 0 -- -- 57
2019-04-15 20:00:00 17.8 24 Oeste 42 Oeste 0 -- -- 54
2019-04-15 19:00:00 18.7 25 Oeste 45 Noroeste 0 -- -- 54
2019-04-15 18:00:00 20.5 26 Oeste 55 Oeste 0 -- -- 45
2019-04-15 17:00:00 22 30 Noroeste 50 Noroeste 0 -- -- 37
2019-04-15 16:00:00 22.7 23 Oeste 43 Noroeste 0 -- -- 38
2019-04-15 15:00:00 23.4 22 Oeste 36 Sudoeste 0 -- -- 36
2019-04-15 14:00:00 21.7 21 Noroeste 37 Noroeste 0 -- -- 43
2019-04-15 13:00:00 22.3 14 Sudoeste 25 Sudoeste 0 -- -- 33
2019-04-15 12:00:00 19.5 9 Sudoeste 27 Sudoeste 0 -- -- 46
2019-04-15 11:00:00 17.9 21 Sudoeste 32 Sudoeste 0 -- -- 55
2019-04-15 10:00:00 14.9 2 Nordeste 10 Sur 0 -- -- 78
2019-04-15 09:00:00 14.2 5 Sudeste 19 Sudeste 0 -- -- 77
2019-04-15 08:00:00 13.3 10 Sudeste 16 Sudeste 0 -- -- 80
2019-04-15 07:00:00 13.6 5 Este 10 Este 0 -- -- 78
2019-04-15 06:00:00 14.2 7 Sudeste 12 Sudeste 0 -- -- 76
2019-04-15 05:00:00 15.2 7 Sudeste 11 Sudeste 0 -- -- 72
2019-04-15 04:00:00 15.7 6 Sudeste 9 Sudeste 0 -- -- 69
2019-04-15 03:00:00 15.7 0 Calma 8 Sudeste 0 -- -- 71
2019-04-15 02:00:00 17.4 5 Sudeste 9 Sudeste 0 -- -- 63
2019-04-15 01:00:00 17.7 4 Sur 10 Sudeste 0 -- -- 63
2019-04-15 00:00:00 17.9 6 Sudeste 10 Sudeste 0 -- -- 63
2019-04-14 23:00:00 18.6 5 Sur 8 Sur 0 -- -- 62
2019-04-14 22:00:00 19.5 3 Sudeste 8 Sudeste 0 -- -- 58
2019-04-14 21:00:00 20.6 3 Este 9 Nordeste 0 -- -- 53
2019-04-14 20:00:00 21.7 5 Norte 12 Norte 0 -- -- 50
2019-04-14 19:00:00 22.6 9 Norte 16 Noroeste 0 -- -- 48
2019-04-14 18:00:00 23 3 Sur 18 Noroeste 0 -- -- 47
2019-04-14 17:00:00 22.7 9 Noroeste 20 Norte 0 -- -- 47
2019-04-14 16:00:00 23.2 10 Noroeste 23 Noroeste 0 -- -- 46
2019-04-14 15:00:00 22.5 9 Noroeste 22 Oeste 0 -- -- 47
2019-04-14 14:00:00 21.5 6 Oeste 16 Sudoeste 0 -- -- 52
2019-04-14 13:00:00 19 7 Sur 13 Sudeste 0 -- -- 64
2019-04-14 12:00:00 16.1 3 Oeste 10 Noroeste 0 -- -- 76
2019-04-14 11:00:00 14.4 4 Noroeste 11 Oeste 0 -- -- 82
2019-04-14 10:00:00 13.3 5 Noroeste 11 Noroeste 0 -- -- 88
2019-04-14 09:00:00 12.4 2 Oeste 8 Oeste 0 -- -- 93
2019-04-14 08:00:00 12 3 Oeste 6 Noroeste 0 -- -- 95
2019-04-14 07:00:00 11.9 6 Noroeste 17 Noroeste 0 -- -- 93
2019-04-14 06:00:00 11.8 10 Noroeste 16 Noroeste 0 -- -- 92
2019-04-14 05:00:00 10.2 4 Noroeste 8 Norte 0 -- -- 86
2019-04-14 04:00:00 11 5 Oeste 8 Oeste 0 -- -- 80
2019-04-14 03:00:00 11.6 6 Oeste 12 Noroeste 0 -- -- 78
2019-04-14 02:00:00 12.2 7 Oeste 15 Oeste 0 -- -- 71
2019-04-14 01:00:00 12.1 5 Oeste 15 Noroeste 0 -- -- 61
2019-04-14 00:00:00 12.5 9 Oeste 15 Oeste 0 -- -- 58
2019-04-13 23:00:00 12.6 5 Noroeste 15 Noroeste 0 -- -- 57
2019-04-13 22:00:00 14.7 14 Noroeste 24 Noroeste 0 -- -- 50
2019-04-13 21:00:00 17.3 10 Noroeste 20 Noroeste 0 -- -- 49
2019-04-13 20:00:00 20.5 12 Noroeste 26 Oeste 0 -- -- 37
2019-04-13 19:00:00 21.6 17 Noroeste 27 Noroeste 0 -- -- 30
2019-04-13 18:00:00 21.8 10 Noroeste 27 Noroeste 0 -- -- 29
2019-04-13 17:00:00 22 15 Noroeste 30 Noroeste 0 -- -- 29
2019-04-13 16:00:00 21.3 12 Noroeste 19 Oeste 0 -- -- 31
2019-04-13 15:00:00 20.5 9 Noroeste 22 Noroeste 0 -- -- 32
2019-04-13 14:00:00 19.1 11 Noroeste 21 Noroeste 0 -- -- 32
2019-04-13 13:00:00 18.5 9 Noroeste 18 Noroeste 0 -- -- 37
2019-04-13 12:00:00 17.7 9 Oeste 19 Noroeste 0 -- -- 37
2019-04-13 11:00:00 15.4 9 Noroeste 13 Noroeste 0 -- -- 58
2019-04-13 10:00:00 12.4 4 Oeste 9 Oeste 0 -- -- 69
2019-04-13 09:00:00 9.4 5 Oeste 10 Oeste 0 -- -- 73
2019-04-13 08:00:00 7.7 8 Oeste 13 Noroeste 0 -- -- 74
2019-04-13 07:00:00 7.2 8 Oeste 14 Oeste 0 -- -- 72
2019-04-13 06:00:00 7.8 9 Oeste 17 Noroeste 0 -- -- 68
2019-04-13 05:00:00 8.6 10 Oeste 18 Oeste 0 -- -- 61
2019-04-13 04:00:00 9.2 8 Oeste 12 Oeste 0 -- -- 56
2019-04-13 03:00:00 9.9 5 Oeste 11 Noroeste 0 -- -- 53
2019-04-13 02:00:00 10.7 4 Noroeste 6 Oeste 0 -- -- 48
2019-04-13 01:00:00 9.6 4 Oeste 9 Noroeste 0 -- -- 53
2019-04-13 00:00:00 10.4 5 Noroeste 11 Oeste 0 -- -- 52
2019-04-12 23:00:00 11.9 5 Norte 9 Noroeste 0 -- -- 50
2019-04-12 22:00:00 13.1 6 Noroeste 12 Noroeste 0 -- -- 52
2019-04-12 21:00:00 15.8 6 Oeste 17 Noroeste 0 -- -- 41
2019-04-12 20:00:00 18.6 9 Noroeste 17 Noroeste 0 -- -- 33
2019-04-12 19:00:00 19.6 5 Noroeste 21 Noroeste 0 -- -- 29
2019-04-12 18:00:00 19.9 12 Noroeste 26 Oeste 0 -- -- 28
2019-04-12 17:00:00 19.2 10 Noroeste 23 Noroeste 0 -- -- 26
2019-04-12 16:00:00 18.8 7 Noroeste 21 Noroeste 0 -- -- 25
2019-04-12 15:00:00 18.2 9 Norte 22 Noroeste 0 -- -- 32
2019-04-12 14:00:00 17.2 12 Noroeste 22 Norte 0 -- -- 33
2019-04-12 13:00:00 16.6 8 Norte 16 Norte 0 -- -- 35
2019-04-12 12:00:00 15.7 3 Nordeste 8 Nordeste 0 -- -- 43
2019-04-12 11:00:00 12.9 4 Noroeste 7 Norte 0 -- -- 60
2019-04-12 10:00:00 9.8 3 Noroeste 6 Oeste 0 -- -- 73
2019-04-12 09:00:00 6.8 4 Oeste 9 Oeste 0 -- -- 90
2019-04-12 08:00:00 5.2 5 Oeste 11 Noroeste 0 -- -- 92
2019-04-12 07:00:00 5.3 4 Oeste 12 Noroeste 0 -- -- 90
2019-04-12 06:00:00 6 6 Oeste 12 Oeste 0 -- -- 88
2019-04-12 05:00:00 6.4 6 Oeste 13 Oeste 0 -- -- 86
2019-04-12 04:00:00 6.7 8 Noroeste 17 Oeste 0 -- -- 82
2019-04-12 03:00:00 7.5 10 Oeste 18 Oeste 0 -- -- 76
2019-04-12 02:00:00 7.6 8 Oeste 14 Oeste 0 -- -- 68
2019-04-12 01:00:00 8.9 5 Noroeste 9 Noroeste 0 -- -- 59
2019-04-12 00:00:00 9.7 5 Noroeste 8 Noroeste 0 -- -- 58
2019-04-11 23:00:00 10.1 5 Noroeste 11 Noroeste 0 -- -- 58
2019-04-11 22:00:00 11.4 5 Noroeste 9 Noroeste 0 -- -- 58
2019-04-11 21:00:00 13 4 Noroeste 16 Noroeste 0 -- -- 54
2019-04-11 20:00:00 16 10 Noroeste 21 Noroeste 0 -- -- 40
2019-04-11 19:00:00 16.6 11 Norte 24 Noroeste 0 -- -- 36
2019-04-11 18:00:00 16 14 Noroeste 26 Norte 0 -- -- 40
2019-04-11 17:00:00 16.5 15 Noroeste 26 Norte 0 -- -- 40
2019-04-11 16:00:00 16.8 11 Noroeste 25 Noroeste 0 -- -- 36
2019-04-11 15:00:00 16 9 Noroeste 16 Noroeste 0 -- -- 41
2019-04-11 14:00:00 15.9 7 Norte 16 Este 0 -- -- 47
2019-04-11 13:00:00 14.5 6 Norte 15 Noroeste 0 -- -- 53
2019-04-11 12:00:00 12.9 6 Norte 12 Norte 0 -- -- 63
2019-04-11 11:00:00 10.5 6 Norte 16 Noroeste 0 -- -- 77
2019-04-11 10:00:00 7.5 12 Noroeste 17 Noroeste 0 -- -- 94
2019-04-11 09:00:00 5.1 11 Noroeste 15 Noroeste 0 -- -- 97
2019-04-11 08:00:00 3.7 10 Noroeste 18 Noroeste 0 -- -- 97
2019-04-11 07:00:00 4.2 12 Noroeste 22 Noroeste 0 -- -- 96
2019-04-11 06:00:00 4.8 14 Noroeste 23 Noroeste 0 -- -- 95
2019-04-11 05:00:00 5.3 15 Noroeste 22 Noroeste 0 -- -- 94
2019-04-11 04:00:00 5.7 15 Oeste 21 Oeste 0 -- -- 93
2019-04-11 03:00:00 6.3 10 Oeste 19 Oeste 0 -- -- 90
2019-04-11 02:00:00 7 13 Oeste 23 Oeste 0 -- -- 88
2019-04-11 01:00:00 7.6 17 Oeste 26 Oeste 0 -- -- 85
2019-04-11 00:00:00 8.3 18 Noroeste 27 Noroeste 0 -- -- 81
2019-04-10 23:00:00 8.9 15 Oeste 26 Noroeste 0 -- -- 78
2019-04-10 22:00:00 9.8 17 Oeste 36 Noroeste 0 -- -- 71
2019-04-10 21:00:00 12.4 22 Noroeste 36 Noroeste 0 -- -- 57
2019-04-10 20:00:00 14.2 25 Noroeste 39 Noroeste 0 -- -- 50
2019-04-10 19:00:00 14.4 28 Noroeste 41 Noroeste 0 -- -- 50
2019-04-10 18:00:00 14.7 24 Noroeste 42 Noroeste 0 -- -- 50
2019-04-10 17:00:00 14.2 25 Noroeste 40 Noroeste 0 -- -- 50
2019-04-10 16:00:00 14.1 19 Noroeste 39 Noroeste 0 -- -- 54
2019-04-10 15:00:00 13.8 25 Noroeste 37 Noroeste 0 -- -- 55
2019-04-10 14:00:00 12.7 20 Noroeste 30 Noroeste 0 -- -- 61
2019-04-10 13:00:00 11.4 16 Noroeste 33 Noroeste 0 -- -- 69
2019-04-10 12:00:00 10 19 Noroeste 32 Noroeste 0 -- -- 77
2019-04-10 11:00:00 8.3 22 Noroeste 35 Noroeste 0 -- -- 84
2019-04-10 10:00:00 7.6 20 Noroeste 33 Noroeste 0 -- -- 90
2019-04-10 09:00:00 7.2 21 Noroeste 31 Noroeste 0 -- -- 92
2019-04-10 08:00:00 6.7 17 Noroeste 29 Noroeste 0 -- -- 94
2019-04-10 07:00:00 6.8 19 Noroeste 32 Oeste 0 -- -- 92
2019-04-10 06:00:00 6.9 17 Noroeste 31 Oeste 0 -- -- 92
2019-04-10 05:00:00 7.1 16 Oeste 29 Oeste 0 -- -- 91
2019-04-10 04:00:00 7.4 17 Oeste 34 Oeste 0 -- -- 91
2019-04-10 03:00:00 6.6 12 Oeste 24 Noroeste 0 -- -- 93
2019-04-10 02:00:00 6.8 13 Oeste 22 Noroeste 0 -- -- 92
2019-04-10 01:00:00 7.5 17 Noroeste 30 Noroeste 0 -- -- 88
2019-04-10 00:00:00 7.3 13 Noroeste 30 Oeste 0 -- -- 90
2019-04-09 23:00:00 8.4 15 Oeste 32 Noroeste 0 -- -- 87
2019-04-09 22:00:00 9.9 13 Oeste 36 Oeste 0.6 -- -- 88
2019-04-09 21:00:00 10.4 11 Oeste 27 Oeste 0.2 -- -- 87
2019-04-09 20:00:00 11.4 15 Oeste 34 Oeste 0.2 -- -- 80
2019-04-09 19:00:00 11.5 19 Oeste 51 Oeste 0.4 -- -- 78
2019-04-09 18:00:00 13.5 28 Oeste 44 Oeste 0.2 -- -- 61
2019-04-09 17:00:00 11.4 29 Noroeste 51 Noroeste 0 -- -- 78
2019-04-09 16:00:00 14.2 28 Oeste 44 Oeste 0 -- -- 57
2019-04-09 15:00:00 12.6 24 Oeste 50 Oeste 0.2 -- -- 63
2019-04-09 14:00:00 10.7 34 Oeste 55 Oeste 0 -- -- 76
2019-04-09 13:00:00 12.5 30 Oeste 47 Oeste 0 -- -- 63
2019-04-09 12:00:00 10.8 23 Oeste 42 Oeste 0.4 -- -- 81
2019-04-09 11:00:00 9.7 22 Oeste 33 Oeste 0 -- -- 80
2019-04-09 10:00:00 8.6 12 Sudoeste 22 Sudoeste 0 -- -- 91
2019-04-09 09:00:00 7.2 12 Sudoeste 17 Sudoeste 0 -- -- 94
2019-04-09 08:00:00 4.9 5 Oeste 16 Oeste 0 -- -- 95
2019-04-09 07:00:00 5.3 9 Oeste 24 Oeste 0 -- -- 95
2019-04-09 06:00:00 5.7 11 Oeste 18 Oeste 0 -- -- 94
2019-04-09 05:00:00 5.3 9 Oeste 21 Oeste 0 -- -- 93
2019-04-09 04:00:00 6.3 14 Oeste 24 Sudoeste 0 -- -- 92
2019-04-09 03:00:00 6.3 14 Oeste 23 Oeste 0 -- -- 90
2019-04-09 02:00:00 6.9 18 Oeste 26 Oeste 0 -- -- 88
2019-04-09 01:00:00 7.3 17 Oeste 25 Oeste 0 -- -- 88
2019-04-09 00:00:00 6.7 8 Oeste 19 Oeste 0 -- -- 92
2019-04-08 23:00:00 7.3 14 Noroeste 29 Noroeste 0 -- -- 91
2019-04-08 22:00:00 8.6 19 Noroeste 44 Noroeste 0 -- -- 86
2019-04-08 21:00:00 11.6 18 Oeste 34 Oeste 0 -- -- 62
2019-04-08 20:00:00 13.1 20 Oeste 40 Oeste 0 -- -- 61
2019-04-08 19:00:00 14.2 18 Oeste 44 Oeste 0 -- -- 66
2019-04-08 18:00:00 15.4 21 Oeste 44 Oeste 0 -- -- 63
2019-04-08 17:00:00 15.9 26 Oeste 44 Oeste 0 -- -- 57
2019-04-08 16:00:00 15.4 28 Oeste 42 Oeste 0 -- -- 60
2019-04-08 15:00:00 14.4 22 Oeste 34 Sudoeste 0.2 -- -- 72
2019-04-08 14:00:00 13.6 13 Oeste 23 Oeste 0 -- -- 76
2019-04-08 13:00:00 11.9 12 Noroeste 19 Noroeste 0 -- -- 90
2019-04-08 12:00:00 11.3 15 Noroeste 26 Oeste 0.2 -- -- 92
2019-04-08 11:00:00 11 9 Oeste 14 Oeste 0.8 -- -- 96
2019-04-08 10:00:00 10.1 9 Sudoeste 15 Sudoeste 2.8 -- -- 96
2019-04-08 09:00:00 9.8 6 Sur 14 Sur 0.2 -- -- 95
2019-04-08 08:00:00 9.4 8 Sur 15 Sur 0.2 -- -- 95
2019-04-08 07:00:00 9.3 5 Sudoeste 13 Sudoeste 0.8 -- -- 93
2019-04-08 06:00:00 9.4 8 Sudoeste 17 Sudoeste 0.2 -- -- 90
2019-04-08 05:00:00 9.7 11 Sudoeste 17 Sudoeste 0 -- -- 90
2019-04-08 04:00:00 9.8 9 Sudoeste 19 Sudoeste 0 -- -- 93
2019-04-08 03:00:00 10.1 13 Sudoeste 18 Sudoeste 0 -- -- 93
2019-04-08 02:00:00 10.1 12 Sudoeste 21 Sudoeste 0.2 -- -- 95
2019-04-08 01:00:00 10.4 8 Sur 14 Sudoeste 0 -- -- 94
2019-04-08 00:00:00 10.6 10 Sudoeste 18 Sudoeste 0 -- -- 93
2019-04-07 23:00:00 10.7 7 Sudoeste 15 Sudoeste 0 -- -- 93
2019-04-07 22:00:00 10.7 9 Sudoeste 18 Sudoeste 0.2 -- -- 95
2019-04-07 21:00:00 10.7 11 Sudoeste 17 Sur 0.4 -- -- 95
2019-04-07 20:00:00 10.9 12 Sur 25 Sudoeste 0.4 -- -- 93
2019-04-07 19:00:00 11.4 16 Sudoeste 28 Sudoeste 0 -- -- 87
2019-04-07 18:00:00 11.7 18 Sudoeste 27 Sur 0 -- -- 84
2019-04-07 17:00:00 11 17 Sudoeste 27 Sudoeste 0 -- -- 85
2019-04-07 16:00:00 10.8 17 Sur 25 Sudoeste 0 -- -- 87
2019-04-07 15:00:00 10.8 12 Sudoeste 25 Sudoeste 0.2 -- -- 84
2019-04-07 14:00:00 10.8 12 Oeste 23 Sudoeste 0 -- -- 81
2019-04-07 13:00:00 10.4 13 Oeste 21 Oeste 0 -- -- 82
2019-04-07 12:00:00 8.4 14 Sudoeste 23 Oeste 0 -- -- 90
2019-04-07 11:00:00 7.2 12 Oeste 30 Oeste 0.4 -- -- 93
2019-04-07 10:00:00 7.3 20 Oeste 33 Oeste 0 -- -- 90
2019-04-07 09:00:00 7.1 12 Oeste 21 Oeste 0.2 -- -- 91
2019-04-07 08:00:00 6.8 10 Oeste 23 Oeste 0 -- -- 91
2019-04-07 07:00:00 6.7 14 Oeste 24 Oeste 0 -- -- 91
2019-04-07 06:00:00 6.7 19 Oeste 32 Oeste 0 -- -- 91
2019-04-07 05:00:00 6.6 23 Oeste 37 Oeste 0.8 -- -- 92
2019-04-07 04:00:00 6.9 26 Oeste 39 Oeste 0.6 -- -- 90
2019-04-07 03:00:00 6.6 24 Oeste 39 Oeste 0 -- -- 89
2019-04-07 02:00:00 6.3 25 Oeste 35 Oeste 0 -- -- 90
2019-04-07 01:00:00 5.9 21 Oeste 33 Oeste 0 -- -- 89
2019-04-07 00:00:00 6.3 22 Oeste 35 Oeste 0 -- -- 88
2019-04-06 23:00:00 6.9 21 Oeste 38 Oeste 0 -- -- 86
2019-04-06 22:00:00 6.9 25 Oeste 35 Oeste 0 -- -- 85
2019-04-06 21:00:00 7.4 17 Oeste 28 Noroeste 0.4 -- -- 82
2019-04-06 20:00:00 8.7 19 Oeste 41 Oeste 0 -- -- 77
2019-04-06 19:00:00 9.4 26 Oeste 65 Oeste 0.6 -- -- 71
2019-04-06 18:00:00 9.7 30 Oeste 71 Oeste 0 -- -- 70
2019-04-06 17:00:00 8.3 32 Noroeste 67 Oeste 0 -- -- 77
2019-04-06 16:00:00 9.7 31 Oeste 57 Oeste 0.6 -- -- 67
2019-04-06 15:00:00 11.2 32 Oeste 50 Oeste 0 -- -- 56
2019-04-06 14:00:00 10.5 24 Oeste 51 Oeste 0 -- -- 64
2019-04-06 13:00:00 8.9 30 Oeste 47 Oeste 0 -- -- 73
2019-04-06 12:00:00 7.7 31 Oeste 44 Oeste 0.2 -- -- 83
2019-04-06 11:00:00 8.1 21 Oeste 31 Oeste 0 -- -- 77
2019-04-06 10:00:00 7.2 16 Oeste 29 Oeste 0 -- -- 86
2019-04-06 09:00:00 5.9 14 Oeste 26 Oeste 0 -- -- 89
2019-04-06 08:00:00 5.6 17 Sudoeste 28 Oeste 0 -- -- 90
2019-04-06 07:00:00 5.5 19 Oeste 29 Oeste 0 -- -- 91
2019-04-06 06:00:00 5.7 13 Oeste 27 Oeste 0 -- -- 91
2019-04-06 05:00:00 5.6 22 Oeste 33 Oeste 0 -- -- 90
2019-04-06 04:00:00 5.1 21 Oeste 30 Oeste 0 -- -- 91
2019-04-06 03:00:00 4.8 22 Oeste 32 Oeste 0 -- -- 91
2019-04-06 02:00:00 4.5 26 Oeste 35 Oeste 0 -- -- 90
2019-04-06 01:00:00 4.3 23 Oeste 31 Oeste 0 -- -- 88
2019-04-06 00:00:00 4.8 19 Oeste 34 Oeste 0 -- -- 86
2019-04-05 23:00:00 5.4 22 Oeste 32 Oeste 0 -- -- 89
2019-04-05 22:00:00 5.1 22 Oeste 36 Oeste 0 -- -- 89
2019-04-05 21:00:00 5.5 23 Oeste 46 Oeste 0 -- -- 84
2019-04-05 20:00:00 8 31 Oeste 54 Oeste 0 -- -- 68
2019-04-05 19:00:00 10.1 27 Oeste 44 Oeste 0 -- -- 54
2019-04-05 18:00:00 10.6 22 Oeste 54 Oeste 0 -- -- 54
2019-04-05 17:00:00 9.1 26 Oeste 66 Oeste 0.2 -- -- 62
2019-04-05 16:00:00 10.1 27 Oeste 47 Oeste 0 -- -- 54
2019-04-05 15:00:00 9.4 30 Oeste 48 Oeste 0 -- -- 61
2019-04-05 14:00:00 8.5 27 Noroeste 43 Noroeste 0 -- -- 74
2019-04-05 13:00:00 7.8 24 Noroeste 42 Noroeste 0 -- -- 82
2019-04-05 12:00:00 7.2 23 Oeste 45 Oeste 1.8 -- -- 89
2019-04-05 11:00:00 7.7 8 Sudoeste 17 Oeste 0.4 -- -- 89
2019-04-05 10:00:00 6.7 8 Sur 13 Sur 0 -- -- 92
2019-04-05 09:00:00 6.1 8 Oeste 25 Noroeste 1.6 -- -- 92
2019-04-05 08:00:00 6.7 6 Sur 14 Sudeste 0 -- -- 93
2019-04-05 07:00:00 6.3 8 Sudeste 19 Sur 0.6 -- -- 93
2019-04-05 06:00:00 6.5 11 Sur 18 Sudoeste 0.6 -- -- 89
2019-04-05 05:00:00 6.8 14 Sur 29 Sudoeste 0 -- -- 80
2019-04-05 04:00:00 7.3 18 Sudoeste 34 Sudoeste 0 -- -- 66
2019-04-05 03:00:00 7.9 14 Oeste 22 Oeste 0 -- -- 66
2019-04-05 02:00:00 8.2 14 Oeste 28 Oeste 0 -- -- 65
2019-04-05 01:00:00 8.6 18 Oeste 31 Oeste 0 -- -- 63
2019-04-05 00:00:00 8.9 20 Oeste 31 Oeste 0 -- -- 55
2019-04-04 23:00:00 10.3 15 Oeste 22 Oeste 0 -- -- 42
2019-04-04 22:00:00 10.9 14 Oeste 27 Oeste 0 -- -- 36
2019-04-04 21:00:00 11.8 13 Oeste 28 Noroeste 0 -- -- 36
2019-04-04 20:00:00 14.6 19 Oeste 32 Oeste 0 -- -- 30
2019-04-04 19:00:00 15.6 16 Oeste 32 Oeste 0 -- -- 26
2019-04-04 18:00:00 15.6 17 Noroeste 35 Noroeste 0 -- -- 27
2019-04-04 17:00:00 15.9 21 Noroeste 31 Noroeste 0 -- -- 29
2019-04-04 16:00:00 15.7 13 Noroeste 25 Oeste 0 -- -- 29
2019-04-04 15:00:00 14.8 9 Oeste 20 Noroeste 0 -- -- 33
2019-04-04 14:00:00 13.5 8 Norte 18 Norte 0 -- -- 34
2019-04-04 13:00:00 12.5 6 Nordeste 15 Este 0 -- -- 38
2019-04-04 12:00:00 11.3 8 Este 17 Norte 0 -- -- 42
2019-04-04 11:00:00 8.3 11 Norte 24 Noroeste 0 -- -- 52
2019-04-04 10:00:00 5.6 15 Noroeste 24 Noroeste 0 -- -- 63
2019-04-04 09:00:00 2.9 12 Noroeste 21 Noroeste 0 -- -- 78
2019-04-04 08:00:00 2 13 Noroeste 22 Noroeste 0 -- -- 81
2019-04-04 07:00:00 2.8 18 Noroeste 32 Noroeste 0 -- -- 78
2019-04-04 06:00:00 2.9 19 Noroeste 28 Noroeste 0 -- -- 74
2019-04-04 05:00:00 3.1 17 Noroeste 25 Noroeste 0 -- -- 74
2019-04-04 04:00:00 3 13 Noroeste 19 Noroeste 0 -- -- 76
2019-04-04 03:00:00 3.6 11 Noroeste 15 Noroeste 0 -- -- 77
2019-04-04 02:00:00 4.9 6 Oeste 15 Noroeste 0 -- -- 77
2019-04-04 01:00:00 5.4 9 Noroeste 16 Oeste 0 -- -- 81
2019-04-04 00:00:00 6.8 12 Noroeste 15 Noroeste 0 -- -- 66
2019-04-03 23:00:00 7.8 7 Noroeste 19 Noroeste 0 -- -- 73
2019-04-03 22:00:00 9.2 8 Oeste 21 Noroeste 0 -- -- 69
2019-04-03 21:00:00 11.8 17 Noroeste 28 Noroeste 0 -- -- 58
2019-04-03 20:00:00 14.3 23 Noroeste 36 Noroeste 0 -- -- 50
2019-04-03 19:00:00 15.2 24 Noroeste 42 Noroeste 0 -- -- 49
2019-04-03 18:00:00 16.3 28 Noroeste 43 Noroeste 0 -- -- 45
2019-04-03 17:00:00 16.8 26 Noroeste 47 Noroeste 0 -- -- 48
2019-04-03 16:00:00 18 28 Noroeste 45 Noroeste 0 -- -- 35
2019-04-03 15:00:00 17.6 24 Oeste 35 Oeste 0 -- -- 35
2019-04-03 14:00:00 17.2 18 Oeste 32 Noroeste 0 -- -- 42
2019-04-03 13:00:00 14.7 14 Oeste 28 Noroeste 0 -- -- 48
2019-04-03 12:00:00 14.2 13 Oeste 23 Noroeste 0 -- -- 50
2019-04-03 11:00:00 12.1 10 Noroeste 21 Noroeste 0 -- -- 61
2019-04-03 10:00:00 10 8 Noroeste 13 Noroeste 0 -- -- 75
2019-04-03 09:00:00 7.7 8 Oeste 12 Oeste 0 -- -- 81
2019-04-03 08:00:00 6.9 9 Oeste 13 Oeste 0 -- -- 81
2019-04-03 07:00:00 7.1 8 Oeste 13 Oeste 0 -- -- 84
2019-04-03 06:00:00 7.6 10 Oeste 13 Noroeste 0 -- -- 87
2019-04-03 05:00:00 8.2 6 Oeste 12 Oeste 0 -- -- 87
2019-04-03 04:00:00 8.6 11 Oeste 17 Oeste 0 -- -- 85
2019-04-03 03:00:00 9 9 Oeste 14 Oeste 0 -- -- 83
2019-04-03 02:00:00 9.9 8 Oeste 17 Oeste 0 -- -- 80
2019-04-03 01:00:00 10.7 12 Oeste 15 Oeste 0 -- -- 77
2019-04-03 00:00:00 11 8 Oeste 13 Oeste 0 -- -- 74
2019-04-02 23:00:00 11.7 8 Oeste 13 Noroeste 0 -- -- 69
2019-04-02 22:00:00 12.7 6 Oeste 10 Oeste 0 -- -- 66
2019-04-02 21:00:00 14.2 9 Noroeste 17 Noroeste 0 -- -- 62
2019-04-02 20:00:00 17.4 12 Noroeste 26 Noroeste 0 -- -- 48
2019-04-02 19:00:00 18.4 15 Noroeste 26 Noroeste 0 -- -- 44
2019-04-02 18:00:00 18.9 12 Noroeste 31 Norte 0 -- -- 45
2019-04-02 17:00:00 18 6 Noroeste 17 Norte 0 -- -- 47
2019-04-02 16:00:00 18.2 9 Noroeste 16 Oeste 0 -- -- 48
2019-04-02 15:00:00 17.9 6 Oeste 14 Noroeste 0 -- -- 54
2019-04-02 14:00:00 16 5 Oeste 12 Noroeste 0 -- -- 61
2019-04-02 13:00:00 14.4 4 Noroeste 10 Norte 0 -- -- 73
2019-04-02 12:00:00 12.3 5 Nordeste 10 Sur 0 -- -- 85
2019-04-02 11:00:00 10.4 4 Sudeste 9 Sudeste 0 -- -- 97
2019-04-02 10:00:00 8.7 6 Sur 9 Sur 0 -- -- 97
2019-04-02 09:00:00 7.8 3 Oeste 8 Sur 0 -- -- 97
2019-04-02 08:00:00 6.7 0 Calma 5 Este 0 -- -- 97
2019-04-02 07:00:00 6.4 0 Calma 5 Noroeste 0 -- -- 96
2019-04-02 06:00:00 7.7 3 Sur 8 Sudeste 0 -- -- 96
2019-04-02 05:00:00 8.9 7 Sudeste 12 Sudeste 0 -- -- 95
2019-04-02 04:00:00 8.9 3 Sudeste 11 Sur 0 -- -- 93
2019-04-02 03:00:00 9.8 9 Sur 12 Sur 0 -- -- 93
2019-04-02 02:00:00 10.1 5 Sur 10 Sudeste 0 -- -- 93
2019-04-02 01:00:00 10 6 Sudeste 11 Sur 0 -- -- 91
2019-04-02 00:00:00 10.1 6 Sudoeste 8 Sudoeste 0 -- -- 91
2019-04-01 23:00:00 11.2 0 Calma 15 Noroeste 0.4 -- -- 91
2019-04-01 22:00:00 11.8 9 Oeste 15 Noroeste 0 -- -- 86
2019-04-01 21:00:00 12.5 12 Oeste 19 Sudoeste 0 -- -- 76
2019-04-01 20:00:00 13.9 10 Sur 24 Sur 0 -- -- 70
2019-04-01 19:00:00 15.4 19 Sudoeste 28 Sudoeste 0 -- -- 58
2019-04-01 18:00:00 17.2 14 Sudeste 25 Sudeste 0 -- -- 50
2019-04-01 17:00:00 16.4 13 Sudeste 24 Sudeste 0 -- -- 49
2019-04-01 16:00:00 16.7 10 Sur 27 Sur 0 -- -- 59
2019-04-01 15:00:00 15 3 Sur 9 Este 0 -- -- 67
2019-04-01 14:00:00 12.8 6 Sudeste 26 Sur 2.2 -- -- 79
2019-04-01 13:00:00 14.3 8 Sudoeste 19 Sur 0 -- -- 71
2019-04-01 12:00:00 13.8 12 Sur 18 Sudeste 0 -- -- 73
2019-04-01 11:00:00 12.8 6 Sudeste 12 Sudeste 0 -- -- 83
2019-04-01 10:00:00 10.3 4 Este 10 Sur 0 -- -- 96
2019-04-01 09:00:00 9.7 4 Este 11 Sur 0 -- -- 95
2019-04-01 08:00:00 9.7 5 Sudeste 12 Sudeste 0 -- -- 95
2019-04-01 07:00:00 10.2 7 Sudeste 15 Sudeste 0 -- -- 94
2019-04-01 06:00:00 10.1 6 Sudeste 12 Sudeste 0 -- -- 93
2019-04-01 05:00:00 10.4 4 Sudeste 11 Sur 0 -- -- 92
2019-04-01 04:00:00 10.4 6 Sudeste 13 Sudeste 0 -- -- 93
2019-04-01 03:00:00 10.1 7 Sudeste 12 Sudeste 0 -- -- 92
2019-04-01 02:00:00 10.3 5 Sudeste 11 Sudeste 0 -- -- 89
2019-04-01 01:00:00 10.1 7 Sur 11 Sur 0 -- -- 90
2019-04-01 00:00:00 10.8 3 Sudeste 7 Sudeste 0 -- -- 87
2019-03-31 23:00:00 11.1 3 Este 6 Nordeste 0 -- -- 87
2019-03-31 22:00:00 11 0 Calma 4 Noroeste 0 -- -- 88
2019-03-31 21:00:00 11.4 4 Noroeste 11 Oeste 0 -- -- 86
2019-03-31 20:00:00 12.2 4 Sudeste 16 Este 0 -- -- 80
2019-03-31 19:00:00 12.2 6 Este 19 Noroeste 0.2 -- -- 86
2019-03-31 18:00:00 11.3 9 Noroeste 40 Noroeste 4.6 -- -- 90
2019-03-31 17:00:00 15.9 23 Sudoeste 39 Sudoeste 0 -- -- 63
2019-03-31 16:00:00 19.7 5 Sur 17 Nordeste 0 -- -- 44
2019-03-31 15:00:00 18.3 9 Sudeste 15 Este 0 -- -- 48
2019-03-31 14:00:00 16.9 6 Sudeste 15 Sur 0 -- -- 59
2019-03-31 13:00:00 15.1 8 Sudeste 14 Sudeste 0 -- -- 67
2019-03-31 12:00:00 13.8 8 Sudeste 15 Sudeste 0 -- -- 76
2019-03-31 11:00:00 11.6 7 Sudeste 10 Sur 0 -- -- 85
2019-03-31 10:00:00 9.5 4 Sudeste 10 Sudeste 0 -- -- 93
2019-03-31 09:00:00 8.7 3 Sudeste 5 Sudeste 0 -- -- 94
2019-03-31 08:00:00 8.2 3 Sur 8 Sudeste 0 -- -- 93
2019-03-31 07:00:00 8.8 6 Sur 12 Sudeste 0 -- -- 92
2019-03-31 06:00:00 9.3 7 Sur 20 Este 0 -- -- 89
2019-03-31 05:00:00 9.8 14 Este 20 Este 0.4 -- -- 91
2019-03-31 03:00:00 10.7 10 Sur 18 Este 0 -- -- 84
2019-03-31 01:00:00 12.4 5 Sur 8 Sudeste 0 -- -- 70
2019-03-31 00:00:00 12.7 6 Este 11 Este 0 -- -- 65
2019-03-30 23:00:00 13.1 5 Noroeste 17 Sur 0 -- -- 60
2019-03-30 22:00:00 14 9 Sur 20 Sur 0 -- -- 57
2019-03-30 21:00:00 15.7 9 Sudeste 16 Sur 0 -- -- 52
2019-03-30 20:00:00 16.9 10 Sur 21 Sur 0 -- -- 49
2019-03-30 19:00:00 19.1 12 Sudeste 22 Sudeste 0 -- -- 39
2019-03-30 18:00:00 20.5 11 Sudeste 22 Sudeste 0 -- -- 35
2019-03-30 17:00:00 21.1 9 Sur 23 Sudeste 0 -- -- 33
2019-03-30 16:00:00 20.6 9 Sudeste 22 Sudeste 0 -- -- 34
2019-03-30 15:00:00 20.2 9 Sudeste 24 Sudeste 0 -- -- 36
2019-03-30 14:00:00 19.2 11 Sudeste 23 Este 0 -- -- 39
2019-03-30 13:00:00 18.4 9 Sudeste 24 Sudeste 0 -- -- 42
2019-03-30 12:00:00 16.7 9 Sudeste 23 Este 0 -- -- 47
2019-03-30 11:00:00 14.7 14 Sudeste 26 Este 0 -- -- 55
2019-03-30 10:00:00 12.7 15 Este 24 Este 0 -- -- 63
2019-03-30 09:00:00 10.6 10 Este 18 Sudeste 0 -- -- 73
2019-03-30 08:00:00 7.6 7 Este 9 Este 0 -- -- 85
2019-03-30 07:00:00 6.7 5 Este 10 Este 0 -- -- 87
2019-03-30 06:00:00 6.9 4 Este 6 Este 0 -- -- 83
2019-03-30 05:00:00 7.7 2 Este 9 Este 0 -- -- 82
2019-03-30 04:00:00 8.9 5 Sudeste 21 Este 0 -- -- 79
2019-03-30 03:00:00 9.4 9 Sudeste 21 Sudeste 0 -- -- 75
2019-03-30 02:00:00 10.3 9 Sudeste 17 Sur 0 -- -- 67
2019-03-30 01:00:00 10.6 9 Sudeste 17 Sur 0 -- -- 62
2019-03-30 00:00:00 11.9 10 Sudeste 19 Sudeste 0 -- -- 58
2019-03-29 23:00:00 13.5 12 Sudeste 21 Sudeste 0 -- -- 52
2019-03-29 22:00:00 14.2 9 Sudeste 15 Sudeste 0 -- -- 47
2019-03-29 21:00:00 14.5 8 Sudeste 19 Sudeste 0 -- -- 44
2019-03-29 20:00:00 16 12 Sudeste 18 Sudeste 0 -- -- 39
2019-03-29 19:00:00 17.8 7 Sudeste 16 Sudeste 0 -- -- 30
2019-03-29 18:00:00 18.7 7 Este 16 Sur 0 -- -- 27
2019-03-29 17:00:00 19 8 Sudeste 22 Este 0 -- -- 26
2019-03-29 16:00:00 18.5 12 Este 23 Este 0 -- -- 28
2019-03-29 15:00:00 18.3 9 Este 24 Sudeste 0 -- -- 25
2019-03-29 14:00:00 17.5 12 Sudeste 27 Este 0 -- -- 25
2019-03-29 13:00:00 16.2 15 Sudeste 31 Sudeste 0 -- -- 27
2019-03-29 12:00:00 15.1 19 Sudeste 35 Sudeste 0 -- -- 29
2019-03-29 11:00:00 13.8 16 Sudeste 28 Sudeste 0 -- -- 31
2019-03-29 10:00:00 12.3 9 Sudeste 16 Este 0 -- -- 39
2019-03-29 09:00:00 9.4 8 Este 12 Este 0 -- -- 56
2019-03-29 08:00:00 6.3 5 Este 9 Este 0 -- -- 73
2019-03-29 07:00:00 5.3 6 Este 9 Este 0 -- -- 76
2019-03-29 06:00:00 5.5 6 Sudeste 9 Este 0 -- -- 74
2019-03-29 05:00:00 4.9 3 Este 5 Norte 0 -- -- 65
2019-03-29 04:00:00 5.8 2 Nordeste 7 Sudeste 0 -- -- 59
2019-03-29 03:00:00 7 4 Este 13 Sur 0 -- -- 58
2019-03-29 02:00:00 8.2 9 Sudeste 18 Sudeste 0 -- -- 55
2019-03-29 01:00:00 8.7 11 Sudeste 18 Sudeste 0 -- -- 49
2019-03-29 00:00:00 9.6 10 Sudeste 20 Sudeste 0 -- -- 43
2019-03-28 23:00:00 10.8 7 Sudeste 13 Sur 0 -- -- 39
2019-03-28 22:00:00 11.1 11 Sur 14 Sudoeste 0 -- -- 38
2019-03-28 21:00:00 12.9 7 Sudoeste 9 Sur 0 -- -- 31
2019-03-28 20:00:00 14.4 8 Sur 18 Sur 0 -- -- 27
2019-03-28 19:00:00 17.3 9 Sur 22 Sudeste 0 -- -- 24
2019-03-28 18:00:00 18 12 Sudeste 23 Sudeste 0 -- -- 23
2019-03-28 17:00:00 18.2 12 Sudeste 28 Sudeste 0 -- -- 23
2019-03-28 16:00:00 18.2 16 Sudeste 32 Sudeste 0 -- -- 25
2019-03-28 15:00:00 17.7 13 Sudeste 30 Sur 0 -- -- 26
2019-03-28 14:00:00 17.3 8 Sudeste 27 Este 0 -- -- 24
2019-03-28 13:00:00 16.2 10 Este 28 Sudeste 0 -- -- 25
2019-03-28 12:00:00 14.7 18 Sudeste 30 Sudeste 0 -- -- 31
2019-03-28 11:00:00 13.8 16 Sudeste 27 Sudeste 0 -- -- 38
2019-03-28 10:00:00 12.4 9 Sudeste 15 Este 0 -- -- 58
2019-03-28 09:00:00 9.3 4 Este 12 Este 0 -- -- 72
2019-03-28 08:00:00 6.2 5 Este 10 Este 0 -- -- 82
2019-03-28 07:00:00 5.7 7 Este 10 Este 0 -- -- 84
2019-03-28 06:00:00 5.8 5 Este 8 Este 0 -- -- 83
2019-03-28 05:00:00 4.9 0 Calma 6 Este 0 -- -- 75
2019-03-28 04:00:00 7.8 4 Este 12 Sudeste 0 -- -- 72
2019-03-28 03:00:00 7.7 8 Sudeste 15 Sudeste 0 -- -- 70
2019-03-28 02:00:00 8.1 8 Sudeste 22 Sudeste 0 -- -- 65
2019-03-28 01:00:00 9.1 15 Sudeste 25 Sudeste 0 -- -- 60
2019-03-28 00:00:00 10.1 11 Sudeste 18 Sudeste 0 -- -- 47
2019-03-27 23:00:00 11.6 7 Sudeste 20 Este 0 -- -- 31
2019-03-27 22:00:00 12.6 13 Nordeste 24 Nordeste 0 -- -- 26
2019-03-27 21:00:00 12.8 11 Nordeste 23 Nordeste 0 -- -- 24
2019-03-27 20:00:00 15.4 9 Nordeste 19 Este 0 -- -- 22
2019-03-27 19:00:00 18.1 11 Nordeste 29 Nordeste 0 -- -- 18
2019-03-27 18:00:00 19.1 17 Nordeste 36 Este 0 -- -- 16
2019-03-27 17:00:00 19.5 19 Nordeste 36 Nordeste 0 -- -- 16
2019-03-27 16:00:00 19.7 21 Nordeste 42 Nordeste 0 -- -- 17
2019-03-27 15:00:00 19 17 Este 39 Este 0 -- -- 21
2019-03-27 14:00:00 17.8 22 Nordeste 43 Este 0 -- -- 24
2019-03-27 13:00:00 16.9 21 Este 45 Este 0 -- -- 23
2019-03-27 12:00:00 15.5 17 Este 33 Este 0 -- -- 28
2019-03-27 11:00:00 13.3 14 Este 28 Este 0 -- -- 36
2019-03-27 10:00:00 11.4 17 Este 30 Nordeste 0 -- -- 43
2019-03-27 09:00:00 9.5 15 Nordeste 26 Este 0 -- -- 55
2019-03-27 08:00:00 6.6 5 Este 9 Este 0 -- -- 72
2019-03-27 07:00:00 4.6 0 Calma 6 Sudeste 0 -- -- 82
2019-03-27 06:00:00 6 3 Noroeste 10 Este 0 -- -- 75
2019-03-27 05:00:00 8.1 5 Este 10 Este 0 -- -- 71
2019-03-27 04:00:00 9.2 4 Este 14 Este 0 -- -- 66
2019-03-27 03:00:00 10 6 Este 8 Este 0 -- -- 65
2019-03-27 02:00:00 10.9 5 Este 11 Este 0 -- -- 65
2019-03-27 01:00:00 12 8 Este 23 Sudeste 0 -- -- 60
2019-03-27 00:00:00 13.3 12 Sudeste 24 Sudeste 0 -- -- 55
2019-03-26 23:00:00 13.2 8 Este 14 Este 0 -- -- 50
2019-03-26 22:00:00 15.7 4 Sudeste 11 Sudeste 0 -- -- 43
2019-03-26 21:00:00 15.4 3 Oeste 22 Sudoeste 0 -- -- 41
2019-03-26 20:00:00 18.7 6 Sudoeste 9 Sur 0 -- -- 29
2019-03-26 19:00:00 21.6 8 Sur 14 Sudeste 0 -- -- 25
2019-03-26 18:00:00 22.5 8 Este 21 Este 0 -- -- 21
2019-03-26 17:00:00 23 15 Este 23 Este 0 -- -- 20
2019-03-26 16:00:00 22.8 13 Este 31 Este 0 -- -- 20
2019-03-26 15:00:00 22.8 19 Este 32 Este 0 -- -- 22
2019-03-26 14:00:00 21.6 20 Nordeste 35 Este 0 -- -- 26
2019-03-26 13:00:00 21 15 Nordeste 32 Este 0 -- -- 26
2019-03-26 12:00:00 18.5 15 Este 29 Este 0 -- -- 30
2019-03-26 11:00:00 16.3 13 Nordeste 23 Nordeste 0 -- -- 33
2019-03-26 10:00:00 13.6 12 Nordeste 26 Nordeste 0 -- -- 38
2019-03-26 09:00:00 10.8 12 Nordeste 20 Nordeste 0 -- -- 45
2019-03-26 08:00:00 9.7 10 Este 18 Este 0 -- -- 45
2019-03-26 07:00:00 9.2 7 Nordeste 15 Nordeste 0 -- -- 55
2019-03-26 06:00:00 9.2 7 Este 12 Este 0 -- -- 51
2019-03-26 05:00:00 9.7 9 Este 14 Nordeste 0 -- -- 45
2019-03-26 04:00:00 9.9 3 Este 11 Nordeste 0 -- -- 41
2019-03-26 03:00:00 10.6 7 Nordeste 15 Sudeste 0 -- -- 47
2019-03-26 02:00:00 12.2 7 Sudeste 10 Sur 0 -- -- 49
2019-03-26 01:00:00 11.3 2 Nordeste 8 Este 0 -- -- 35
2019-03-26 00:00:00 13.2 4 Nordeste 14 Sudeste 0 -- -- 30
2019-03-25 23:00:00 13.9 8 Este 18 Nordeste 0 -- -- 30
2019-03-25 22:00:00 14.6 8 Este 15 Este 0 -- -- 30
2019-03-25 21:00:00 15.4 6 Este 21 Nordeste 0 -- -- 29
2019-03-25 20:00:00 17.7 11 Nordeste 21 Nordeste 0 -- -- 27
2019-03-25 19:00:00 19.9 13 Nordeste 28 Nordeste 0 -- -- 24
2019-03-25 18:00:00 21.3 20 Este 36 Este 0 -- -- 24
2019-03-25 17:00:00 21.8 20 Este 41 Este 0 -- -- 24
2019-03-25 16:00:00 21.7 20 Este 33 Este 0 -- -- 25
2019-03-25 15:00:00 21.4 18 Este 34 Este 0 -- -- 27
2019-03-25 14:00:00 20.5 19 Este 40 Este 0 -- -- 29
2019-03-25 13:00:00 19.6 16 Este 30 Este 0 -- -- 32
2019-03-25 12:00:00 18.2 15 Este 30 Este 0 -- -- 36
2019-03-25 11:00:00 16.5 14 Este 23 Nordeste 0 -- -- 40
2019-03-25 10:00:00 14.2 9 Nordeste 16 Nordeste 0 -- -- 53
2019-03-25 09:00:00 10.5 8 Nordeste 15 Nordeste 0 -- -- 66
2019-03-25 08:00:00 8.4 8 Nordeste 14 Este 0 -- -- 71
2019-03-25 07:00:00 8 3 Nordeste 11 Nordeste 0 -- -- 72
2019-03-25 06:00:00 6.4 5 Norte 8 Norte 0 -- -- 76
2019-03-25 05:00:00 7.7 2 Noroeste 4 Este 0 -- -- 72
2019-03-25 04:00:00 8.7 3 Nordeste 5 Nordeste 0 -- -- 70
2019-03-25 03:00:00 9.2 3 Este 10 Norte 0 -- -- 68
2019-03-25 02:00:00 8.7 3 Noroeste 6 Norte 0 -- -- 70
2019-03-25 01:00:00 9.7 3 Oeste 9 Sudoeste 0 -- -- 69
2019-03-25 00:00:00 10.6 3 Oeste 10 Sudoeste 0 -- -- 64
2019-03-24 23:00:00 12.4 8 Sudoeste 13 Sudoeste 0 -- -- 58
2019-03-24 22:00:00 14 7 Sur 9 Sur 0 -- -- 51
2019-03-24 21:00:00 15 5 Sur 13 Sudeste 0 -- -- 48
2019-03-24 20:00:00 16.1 7 Sudeste 20 Sudeste 0 -- -- 43
2019-03-24 19:00:00 17.7 10 Sudeste 26 Este 0 -- -- 40
2019-03-24 18:00:00 18.8 14 Este 23 Este 0 -- -- 38
2019-03-24 17:00:00 18.2 14 Este 32 Este 0 -- -- 39
2019-03-24 16:00:00 19.7 15 Sudeste 28 Sudeste 0 -- -- 35
2019-03-24 15:00:00 19.4 11 Este 35 Este 0 -- -- 36
2019-03-24 14:00:00 19.4 16 Sudeste 30 Este 0 -- -- 35
2019-03-24 13:00:00 17.9 11 Este 30 Este 0 -- -- 39
2019-03-24 12:00:00 16.9 10 Este 23 Este 0 -- -- 42
2019-03-24 11:00:00 15 9 Este 17 Nordeste 0 -- -- 48
2019-03-24 10:00:00 12.8 10 Este 17 Este 0 -- -- 57
2019-03-24 09:00:00 8.4 4 Nordeste 8 Nordeste 0 -- -- 76
2019-03-24 08:00:00 7.4 5 Este 14 Este 0 -- -- 78
2019-03-24 07:00:00 7.2 7 Este 15 Este 0 -- -- 78
2019-03-24 06:00:00 6.5 5 Este 10 Este 0 -- -- 80
2019-03-24 05:00:00 6.1 4 Norte 11 Nordeste 0 -- -- 80
2019-03-24 04:00:00 7.8 6 Nordeste 14 Este 0 -- -- 75
2019-03-24 03:00:00 9 9 Este 17 Este 0 -- -- 69
2019-03-24 02:00:00 9.9 8 Este 15 Sudeste 0 -- -- 65
2019-03-24 01:00:00 10.8 6 Sudeste 13 Sudeste 0 -- -- 60
2019-03-24 00:00:00 11.4 8 Sudeste 17 Este 0 -- -- 57
2019-03-23 23:00:00 12.1 6 Sudeste 25 Este 0 -- -- 53
2019-03-23 22:00:00 13.8 13 Sudeste 25 Este 0 -- -- 47
2019-03-23 21:00:00 15.4 13 Sudeste 32 Este 0 -- -- 41
2019-03-23 20:00:00 16.3 7 Este 16 Este 0 -- -- 36
2019-03-23 19:00:00 17.5 9 Sudeste 31 Sudeste 0 -- -- 32
2019-03-23 18:00:00 18.5 19 Sudeste 31 Este 0 -- -- 27
2019-03-23 17:00:00 19.1 17 Este 41 Este 0 -- -- 31
2019-03-23 16:00:00 19.3 20 Este 36 Este 0 -- -- 31
2019-03-23 15:00:00 18.8 18 Este 37 Este 0 -- -- 32
2019-03-23 14:00:00 18.2 22 Este 39 Este 0 -- -- 32
2019-03-23 13:00:00 18.3 24 Este 43 Este 0 -- -- 32
2019-03-23 12:00:00 17.1 24 Este 48 Este 0 -- -- 33
2019-03-23 11:00:00 15.8 25 Este 39 Este 0 -- -- 39
2019-03-23 10:00:00 12.8 13 Este 22 Este 0 -- -- 51
2019-03-23 09:00:00 9.9 8 Este 11 Este 0 -- -- 60
2019-03-23 08:00:00 6.3 6 Nordeste 10 Este 0 -- -- 70
2019-03-23 07:00:00 5.6 5 Nordeste 9 Nordeste 0 -- -- 71
2019-03-23 06:00:00 7.1 4 Este 8 Este 0 -- -- 66
2019-03-23 05:00:00 6.4 4 Nordeste 10 Nordeste 0 -- -- 66
2019-03-23 04:00:00 6.8 4 Este 8 Nordeste 0 -- -- 67
2019-03-23 03:00:00 8.6 4 Este 12 Sudeste 0 -- -- 61
2019-03-23 02:00:00 8.8 7 Sudeste 16 Sudeste 0 -- -- 58
2019-03-23 01:00:00 9.4 9 Sudeste 16 Sudeste 0 -- -- 46
2019-03-23 00:00:00 10.7 6 Este 9 Sudeste 0 -- -- 47
2019-03-22 23:00:00 10.7 5 Nordeste 9 Este 0 -- -- 45
2019-03-22 22:00:00 11.7 2 Este 13 Norte 0 -- -- 42
2019-03-22 21:00:00 11.8 9 Norte 18 Nordeste 0 -- -- 41
2019-03-22 20:00:00 13.3 13 Norte 22 Nordeste 0 -- -- 39
2019-03-22 19:00:00 15.1 9 Nordeste 27 Nordeste 0 -- -- 36
2019-03-22 18:00:00 17.5 16 Nordeste 30 Este 0 -- -- 28
2019-03-22 17:00:00 18.3 14 Nordeste 28 Nordeste 0 -- -- 26
2019-03-22 16:00:00 18.2 11 Este 26 Nordeste 0 -- -- 25
2019-03-22 15:00:00 17.2 15 Este 31 Este 0 -- -- 26
2019-03-22 14:00:00 16.7 16 Este 35 Este 0 -- -- 25
2019-03-22 13:00:00 15.5 13 Sudeste 34 Nordeste 0 -- -- 29
2019-03-22 12:00:00 14.1 13 Este 28 Este 0 -- -- 32
2019-03-22 11:00:00 12.2 14 Este 24 Este 0 -- -- 35
2019-03-22 10:00:00 9.8 12 Nordeste 21 Nordeste 0 -- -- 49
2019-03-22 09:00:00 6.4 2 Norte 8 Nordeste 0 -- -- 68
2019-03-22 08:00:00 5.3 4 Este 10 Este 0 -- -- 73
2019-03-22 07:00:00 5 5 Este 9 Este 0 -- -- 78
2019-03-22 06:00:00 4.9 8 Este 10 Este 0 -- -- 77
2019-03-22 05:00:00 5.2 4 Sudeste 9 Sudeste 0 -- -- 75
2019-03-22 04:00:00 6.3 8 Sudeste 13 Sudeste 0 -- -- 68
2019-03-22 03:00:00 6.7 8 Sudeste 14 Sudeste 0 -- -- 63
2019-03-22 02:00:00 7.1 10 Sudeste 16 Sudeste 0 -- -- 53
2019-03-22 01:00:00 8.4 8 Sudeste 13 Sudeste 0 -- -- 43
2019-03-22 00:00:00 8.9 7 Sudeste 18 Este 0 -- -- 39
2019-03-21 23:00:00 8.1 9 Nordeste 17 Nordeste 0 -- -- 41
2019-03-21 22:00:00 9.9 2 Este 17 Este 0 -- -- 38
2019-03-21 21:00:00 10.1 9 Nordeste 15 Nordeste 0 -- -- 37
2019-03-21 20:00:00 11.6 11 Nordeste 18 Nordeste 0 -- -- 34
2019-03-21 19:00:00 14.8 9 Nordeste 24 Nordeste 0 -- -- 27
2019-03-21 18:00:00 15.8 14 Este 28 Norte 0 -- -- 25
2019-03-21 17:00:00 16.2 14 Este 27 Nordeste 0 -- -- 24
2019-03-21 16:00:00 16.3 13 Este 32 Este 0 -- -- 24
2019-03-21 15:00:00 15.9 17 Este 38 Este 0 -- -- 25
2019-03-21 14:00:00 15.2 20 Este 36 Este 0 -- -- 25
2019-03-21 13:00:00 14.7 15 Este 33 Este 0 -- -- 28
2019-03-21 12:00:00 13.5 17 Este 32 Este 0 -- -- 33
2019-03-21 11:00:00 11.9 19 Este 30 Este 0 -- -- 49
2019-03-21 10:00:00 10.9 9 Sudeste 14 Sudeste 0 -- -- 64
2019-03-21 09:00:00 8.4 3 Este 6 Este 0 -- -- 75
2019-03-21 08:00:00 5.6 5 Sudeste 7 Sudeste 0 -- -- 84
2019-03-21 07:00:00 4.7 4 Sudeste 11 Este 0 -- -- 84
2019-03-21 06:00:00 5.8 6 Sudeste 11 Sur 0 -- -- 78
2019-03-21 05:00:00 6.2 7 Sur 12 Sudeste 0 -- -- 76
2019-03-21 04:00:00 6.6 8 Sudeste 13 Sudeste 0 -- -- 72
2019-03-21 03:00:00 7.1 7 Sudeste 13 Sudeste 0 -- -- 67
2019-03-21 02:00:00 8 6 Sudeste 10 Sudeste 0 -- -- 57
2019-03-21 01:00:00 7.4 4 Sudeste 8 Sudeste 0 -- -- 57
2019-03-21 00:00:00 8.7 2 Este 9 Sudeste 0 -- -- 49
2019-03-20 23:00:00 9.1 5 Sudeste 14 Nordeste 0 -- -- 47
2019-03-20 22:00:00 9.2 10 Nordeste 15 Nordeste 0 -- -- 45
2019-03-20 21:00:00 10.5 9 Nordeste 17 Nordeste 0 -- -- 42
2019-03-20 20:00:00 12.1 9 Nordeste 22 Nordeste 0 -- -- 39
2019-03-20 19:00:00 14.9 13 Nordeste 24 Nordeste 0 -- -- 35
2019-03-20 18:00:00 15.5 8 Nordeste 24 Este 0 -- -- 34
2019-03-20 17:00:00 15.2 13 Este 23 Nordeste 0 -- -- 35
2019-03-20 16:00:00 15.9 13 Nordeste 28 Este 0 -- -- 35
2019-03-20 15:00:00 15.3 13 Nordeste 30 Nordeste 0 -- -- 33
2019-03-20 14:00:00 14.4 13 Este 33 Este 0 -- -- 33
2019-03-20 13:00:00 13.4 16 Este 28 Este 0 -- -- 38
2019-03-20 12:00:00 11.8 15 Este 28 Este 0 -- -- 43
2019-03-20 11:00:00 10.4 14 Nordeste 27 Nordeste 0 -- -- 47
2019-03-20 10:00:00 8.5 15 Nordeste 31 Nordeste 0 -- -- 51
2019-03-20 09:00:00 7 13 Nordeste 26 Nordeste 0 -- -- 54
2019-03-20 08:00:00 5.1 10 Nordeste 17 Nordeste 0 -- -- 58
2019-03-20 07:00:00 5.1 9 Nordeste 17 Este 0 -- -- 58
2019-03-20 06:00:00 5.9 6 Este 21 Nordeste 0 -- -- 56
2019-03-20 05:00:00 7 11 Nordeste 26 Nordeste 0 -- -- 53
2019-03-20 04:00:00 7.6 16 Nordeste 28 Nordeste 0 -- -- 51
2019-03-20 03:00:00 6 7 Nordeste 13 Norte 0 -- -- 57
2019-03-20 02:00:00 7.3 4 Nordeste 9 Nordeste 0 -- -- 54
2019-03-20 01:00:00 7.1 3 Norte 8 Noroeste 0 -- -- 53
2019-03-20 00:00:00 8.5 0 Calma 9 Norte 0 -- -- 49
2019-03-19 23:00:00 8.6 4 Oeste 9 Norte 0 -- -- 48
2019-03-19 22:00:00 9.5 2 Noroeste 10 Nordeste 0 -- -- 46
2019-03-19 21:00:00 10.6 3 Noroeste 13 Norte 0 -- -- 44
2019-03-19 20:00:00 12.7 7 Nordeste 19 Nordeste 0 -- -- 39
2019-03-19 19:00:00 15 12 Nordeste 34 Este 0 -- -- 33
2019-03-19 18:00:00 16.1 16 Nordeste 31 Norte 0 -- -- 31
2019-03-19 17:00:00 16.4 18 Norte 37 Nordeste 0 -- -- 32
2019-03-19 16:00:00 16.2 20 Nordeste 36 Nordeste 0 -- -- 33
2019-03-19 15:00:00 16.2 15 Nordeste 38 Nordeste 0 -- -- 33
2019-03-19 14:00:00 15.7 16 Nordeste 34 Este 0 -- -- 32
2019-03-19 13:00:00 14.9 18 Nordeste 34 Nordeste 0 -- -- 33
2019-03-19 12:00:00 14.3 18 Nordeste 35 Nordeste 0 -- -- 34
2019-03-19 11:00:00 13.2 18 Este 34 Nordeste 0 -- -- 36
2019-03-19 10:00:00 11.3 16 Nordeste 30 Nordeste 0 -- -- 42
2019-03-19 09:00:00 9.1 5 Este 15 Nordeste 0 -- -- 43
2019-03-19 08:00:00 7.2 8 Este 14 Este 0 -- -- 44
2019-03-19 07:00:00 6.5 7 Nordeste 12 Nordeste 0 -- -- 46
2019-03-19 06:00:00 5.7 5 Norte 8 Norte 0 -- -- 49
2019-03-19 05:00:00 6.5 2 Nordeste 8 Norte 0 -- -- 46
2019-03-19 04:00:00 7.1 5 Norte 8 Norte 0 -- -- 45
2019-03-19 03:00:00 6.2 2 Oeste 4 Noroeste 0 -- -- 52
2019-03-19 02:00:00 7.4 0 Calma 7 Oeste 0 -- -- 45
2019-03-19 01:00:00 7.2 4 Oeste 7 Oeste 0 -- -- 51
2019-03-19 00:00:00 7.8 4 Noroeste 11 Noroeste 0 -- -- 49